Time;durP1;ratioP1;P1;durP2;ratioP2;P2;SDS_P1;SDS_P2;PMS_P1;PMS_P2;Temp;Humidity;BMP_temperature;BMP_pressure;BME280_temperature;BME280_humidity;BME280_pressure;Samples;Min_cycle;Max_cycle;Signal;HPM_P1;HPM_P2
2022/03/19 00:01:00;;;;;;;3.70;2.60;;;9.60;88.30;;;;;;4999953;28;20400;-72
2022/03/19 00:03:27;;;;;;;0.70;0.70;;;9.50;88.20;;;;;;5006238;28;20523;-72
2022/03/19 00:05:53;;;;;;;0.55;0.55;;;9.50;87.60;;;;;;5008310;28;20758;-71
2022/03/19 00:08:19;;;;;;;0.60;0.60;;;9.60;87.50;;;;;;5003038;28;20531;-72
2022/03/19 00:10:45;;;;;;;0.40;0.20;;;9.60;86.90;;;;;;5008508;28;20403;-72
2022/03/19 00:13:12;;;;;;;1.00;0.90;;;9.60;86.40;;;;;;5006860;28;20389;-74
2022/03/19 00:15:40;;;;;;;0.40;0.20;;;9.60;86.90;;;;;;5002070;28;20480;-72
2022/03/19 00:18:06;;;;;;;1.70;0.60;;;9.60;87.00;;;;;;5001371;28;20466;-73
2022/03/19 00:20:35;;;;;;;0.50;0.50;;;9.60;86.50;;;;;;4991089;28;20395;-73
2022/03/19 00:23:01;;;;;;;0.50;0.50;;;9.50;86.80;;;;;;4991389;28;20473;-73
2022/03/19 00:25:26;;;;;;;0.70;0.50;;;9.50;86.70;;;;;;4992392;28;20796;-72
2022/03/19 00:27:52;;;;;;;1.00;0.97;;;9.40;87.00;;;;;;4992157;28;20418;-72
2022/03/19 00:30:18;;;;;;;2.50;2.30;;;9.50;86.70;;;;;;4991427;28;20390;-72
2022/03/19 00:32:44;;;;;;;1.73;1.27;;;9.50;86.90;;;;;;4991844;28;20794;-72
2022/03/19 00:35:10;;;;;;;0.43;0.43;;;9.50;86.60;;;;;;4991122;28;20784;-72
2022/03/19 00:37:47;;;;;;;0.40;0.30;;;9.40;86.30;;;;;;4991844;28;20394;-72
2022/03/19 00:40:14;;;;;;;0.90;0.70;;;9.40;86.80;;;;;;4989962;28;20795;-73
2022/03/19 00:42:41;;;;;;;0.65;0.65;;;9.40;86.40;;;;;;4991674;28;20403;-72
2022/03/19 00:45:08;;;;;;;0.50;0.50;;;9.40;86.80;;;;;;4991972;28;20383;-73
2022/03/19 00:47:35;;;;;;;0.50;0.50;;;9.30;86.50;;;;;;4990871;28;20497;-73
2022/03/19 00:50:02;;;;;;;2.20;2.00;;;9.30;86.50;;;;;;4991562;28;20894;-73
2022/03/19 00:52:28;;;;;;;0.40;0.30;;;9.30;86.20;;;;;;4989653;28;20860;-73
2022/03/19 00:54:53;;;;;;;1.20;0.80;;;9.20;86.60;;;;;;4991764;28;20383;-72
2022/03/19 00:57:19;;;;;;;0.50;0.50;;;9.20;86.70;;;;;;4991680;28;20386;-73
2022/03/19 00:59:45;;;;;;;0.63;0.63;;;9.20;85.50;;;;;;4990774;28;20477;-72
2022/03/19 01:02:11;;;;;;;0.40;0.30;;;9.20;85.30;;;;;;4991556;28;20890;-73
2022/03/19 01:04:37;;;;;;;0.60;0.60;;;9.20;84.70;;;;;;4990560;28;20387;-72
2022/03/19 01:07:03;;;;;;;0.40;0.30;;;9.20;85.40;;;;;;4991495;28;20509;-73
2022/03/19 01:09:29;;;;;;;1.30;1.20;;;9.30;83.60;;;;;;4996851;28;20416;-73
2022/03/19 01:11:54;;;;;;;0.80;0.70;;;9.30;83.30;;;;;;5010344;28;20475;-73
2022/03/19 01:14:21;;;;;;;0.50;0.50;;;9.30;83.80;;;;;;5010778;28;20811;-72
2022/03/19 01:16:46;;;;;;;1.00;1.00;;;9.30;82.40;;;;;;5010285;28;20718;-72
2022/03/19 01:19:12;;;;;;;0.40;0.20;;;9.30;82.80;;;;;;5010872;28;20389;-73
2022/03/19 01:21:39;;;;;;;0.70;0.70;;;9.20;82.60;;;;;;5010782;28;20871;-72
2022/03/19 01:24:05;;;;;;;1.70;1.40;;;9.20;82.00;;;;;;5010300;28;20393;-73
2022/03/19 01:26:31;;;;;;;0.90;0.90;;;9.10;82.40;;;;;;5010715;28;20388;-73
2022/03/19 01:28:58;;;;;;;1.50;1.20;;;9.10;82.20;;;;;;5009809;28;20396;-73
2022/03/19 01:31:26;;;;;;;1.20;1.10;;;9.00;82.60;;;;;;5009590;28;20912;-73
2022/03/19 01:33:55;;;;;;;0.77;0.77;;;9.10;81.70;;;;;;5009901;28;20428;-72
2022/03/19 01:36:21;;;;;;;0.43;0.40;;;9.10;81.80;;;;;;5009526;28;20396;-73
2022/03/19 01:38:47;;;;;;;1.00;1.00;;;9.10;81.60;;;;;;5010786;28;20491;-73
2022/03/19 01:41:14;;;;;;;0.40;0.20;;;9.10;81.10;;;;;;5009829;28;20464;-73
2022/03/19 01:43:40;;;;;;;0.80;0.80;;;9.00;81.60;;;;;;5010438;28;20380;-73
2022/03/19 01:46:07;;;;;;;1.20;0.80;;;9.00;81.00;;;;;;4992395;28;20939;-72
2022/03/19 01:48:32;;;;;;;0.82;0.82;;;9.00;81.00;;;;;;5010596;28;20809;-73
2022/03/19 01:50:58;;;;;;;5.30;1.20;;;8.90;81.50;;;;;;5010705;28;20393;-73
2022/03/19 01:53:24;;;;;;;0.40;0.30;;;8.90;81.80;;;;;;5009789;28;20655;-72
2022/03/19 01:55:53;;;;;;;1.30;0.90;;;8.90;81.40;;;;;;5010491;28;20431;-73
2022/03/19 01:58:19;;;;;;;0.90;0.90;;;8.90;80.70;;;;;;5008367;28;20393;-72
2022/03/19 02:00:45;;;;;;;0.40;0.20;;;9.00;80.90;;;;;;5010656;28;20412;-73
2022/03/19 02:03:12;;;;;;;0.70;0.50;;;8.90;80.80;;;;;;5010276;28;20458;-73
2022/03/19 02:05:38;;;;;;;1.30;1.20;;;8.90;80.20;;;;;;5009979;28;20411;-73
2022/03/19 02:08:04;;;;;;;0.50;0.50;;;9.00;80.20;;;;;;5009878;28;20607;-72
2022/03/19 02:10:30;;;;;;;0.70;0.70;;;8.90;80.70;;;;;;4995422;28;20395;-73
2022/03/19 02:12:56;;;;;;;0.40;0.30;;;8.80;80.60;;;;;;4991264;28;20391;-74
2022/03/19 02:15:22;;;;;;;0.40;0.30;;;8.70;81.20;;;;;;4990496;28;20394;-73
2022/03/19 02:17:49;;;;;;;0.40;0.30;;;8.80;80.30;;;;;;4990880;28;20386;-73
2022/03/19 02:20:15;;;;;;;0.40;0.33;;;8.80;80.40;;;;;;4990893;28;20465;-73
2022/03/19 02:25:34;;;;;;;0.40;0.40;;;8.80;80.60;;;;;;4990088;28;20465;-72
2022/03/19 02:25:35;;;;;;;0.40;0.20;;;8.80;80.40;;;;;;4990149;28;20398;-73
2022/03/19 02:28:01;;;;;;;0.50;0.50;;;8.80;80.70;;;;;;4994324;28;20406;-74
2022/03/19 02:30:27;;;;;;;1.20;0.80;;;8.70;80.10;;;;;;4994313;28;20393;-73
2022/03/19 02:32:53;;;;;;;1.30;1.20;;;8.80;80.60;;;;;;4993663;28;20568;-74
2022/03/19 02:35:19;;;;;;;0.40;0.30;;;8.80;80.30;;;;;;4994350;28;20394;-73
2022/03/19 02:37:48;;;;;;;0.40;0.30;;;8.70;80.60;;;;;;4993244;28;20390;-74
2022/03/19 02:40:16;;;;;;;1.10;1.10;;;8.70;80.30;;;;;;4994174;28;20477;-73
2022/03/19 02:42:51;;;;;;;1.40;0.70;;;8.70;80.30;;;;;;4993585;28;20470;-73
2022/03/19 02:45:18;;;;;;;0.40;0.30;;;8.90;79.60;;;;;;4994353;28;20394;-74
2022/03/19 02:47:59;;;;;;;0.50;0.50;;;8.80;79.70;;;;;;4994028;28;20410;-73
2022/03/19 02:50:29;;;;;;;0.40;0.40;;;8.70;80.00;;;;;;4994139;28;20484;-73
2022/03/19 02:52:56;;;;;;;1.70;0.70;;;8.70;80.30;;;;;;4993041;28;20500;-73
2022/03/19 02:55:22;;;;;;;0.60;0.60;;;8.70;80.10;;;;;;4993854;28;20462;-72
2022/03/19 02:57:48;;;;;;;0.40;0.20;;;8.70;79.90;;;;;;4994088;28;20969;-73
2022/03/19 03:00:14;;;;;;;0.70;0.60;;;8.80;79.10;;;;;;4991652;28;20382;-73
2022/03/19 03:02:40;;;;;;;0.98;0.98;;;8.70;79.40;;;;;;4992594;28;20514;-73
2022/03/19 03:05:06;;;;;;;1.00;1.00;;;8.60;79.50;;;;;;4992424;28;20465;-72
2022/03/19 03:07:32;;;;;;;0.40;0.20;;;8.70;79.20;;;;;;4993807;28;20438;-73
2022/03/19 03:09:58;;;;;;;1.20;1.00;;;8.60;79.10;;;;;;5003058;28;20441;-72
2022/03/19 03:12:24;;;;;;;1.47;1.37;;;8.70;78.70;;;;;;5012603;28;20437;-72
2022/03/19 03:14:50;;;;;;;1.20;1.10;;;8.80;78.30;;;;;;5013134;28;20463;-73
2022/03/19 03:17:16;;;;;;;1.65;1.15;;;8.80;78.00;;;;;;5012387;28;20385;-74
2022/03/19 03:19:42;;;;;;;0.60;0.60;;;8.80;78.20;;;;;;5011722;28;20392;-74
2022/03/19 03:22:09;;;;;;;0.83;0.83;;;8.70;78.60;;;;;;5012785;28;20409;-74
2022/03/19 03:24:35;;;;;;;0.63;0.47;;;8.70;78.70;;;;;;5012604;28;20455;-72
2022/03/19 03:27:01;;;;;;;1.20;1.10;;;8.70;78.60;;;;;;5011770;28;20512;-74
2022/03/19 03:29:27;;;;;;;2.50;0.90;;;8.60;78.60;;;;;;5012058;28;20927;-74
2022/03/19 03:31:52;;;;;;;0.43;0.43;;;8.60;79.00;;;;;;5012899;28;20423;-74
2022/03/19 03:34:18;;;;;;;0.40;0.30;;;8.60;79.10;;;;;;5012621;28;20726;-74
2022/03/19 03:36:44;;;;;;;0.60;0.60;;;8.60;79.10;;;;;;5012274;28;20853;-74
2022/03/19 03:39:09;;;;;;;1.00;0.70;;;8.50;79.70;;;;;;5012649;28;20423;-74
2022/03/19 03:41:35;;;;;;;1.10;1.00;;;8.40;79.60;;;;;;5011893;28;20405;-74
2022/03/19 03:44:01;;;;;;;0.40;0.40;;;8.40;80.10;;;;;;5012683;28;20389;-74
2022/03/19 03:46:27;;;;;;;0.77;0.77;;;8.50;80.00;;;;;;5012189;28;20433;-74
2022/03/19 03:48:53;;;;;;;0.40;0.40;;;8.50;80.10;;;;;;5012307;28;20467;-72
2022/03/19 03:51:19;;;;;;;0.68;0.68;;;8.50;80.00;;;;;;5012248;28;20377;-72
2022/03/19 03:53:45;;;;;;;1.20;1.00;;;8.50;80.00;;;;;;5011446;28;20385;-72
2022/03/19 03:56:11;;;;;;;0.40;0.20;;;8.50;80.20;;;;;;5012265;28;20396;-74
2022/03/19 03:58:39;;;;;;;0.50;0.40;;;8.40;80.30;;;;;;5011552;28;20396;-73
2022/03/19 04:01:05;;;;;;;0.40;0.38;;;8.40;81.00;;;;;;5012307;28;20388;-74
2022/03/19 04:03:30;;;;;;;0.50;0.50;;;8.50;81.00;;;;;;5012039;28;20749;-74
2022/03/19 04:05:56;;;;;;;0.40;0.20;;;8.40;81.30;;;;;;5011234;28;20392;-74
2022/03/19 04:08:22;;;;;;;1.50;1.40;;;8.40;81.40;;;;;;5010554;28;20433;-72
2022/03/19 04:10:48;;;;;;;0.60;0.60;;;8.40;81.20;;;;;;4994442;28;20390;-72
2022/03/19 04:13:14;;;;;;;5.33;1.23;;;8.30;81.90;;;;;;4992384;28;20393;-73
2022/03/19 04:15:39;;;;;;;1.20;1.10;;;8.40;81.70;;;;;;4992389;28;20521;-73
2022/03/19 04:18:05;;;;;;;0.70;0.70;;;8.20;82.50;;;;;;4991459;28;20884;-73
2022/03/19 04:20:31;;;;;;;0.40;0.20;;;8.10;82.50;;;;;;4992177;28;20382;-73
2022/03/19 04:22:57;;;;;;;0.65;0.65;;;8.10;83.40;;;;;;4991084;28;20383;-73
2022/03/19 04:25:25;;;;;;;0.40;0.30;;;8.10;83.60;;;;;;4992000;28;20453;-73
2022/03/19 04:27:52;;;;;;;0.80;0.80;;;8.10;83.90;;;;;;4990671;28;20815;-73
2022/03/19 04:30:20;;;;;;;0.60;0.60;;;8.10;84.10;;;;;;4991064;28;20378;-73
2022/03/19 04:32:53;;;;;;;0.52;0.52;;;8.10;83.80;;;;;;4992373;28;20410;-73
2022/03/19 04:38:07;;;;;;;0.40;0.40;;;8.00;84.40;;;;;;4992123;28;20886;-74
2022/03/19 04:40:34;;;;;;;0.88;0.88;;;8.10;84.10;;;;;;4992113;28;20395;-73
2022/03/19 04:43:00;;;;;;;0.40;0.30;;;8.00;84.90;;;;;;4991059;28;20788;-73
2022/03/19 04:45:26;;;;;;;3.40;2.00;;;8.00;84.80;;;;;;4991387;28;20379;-73
2022/03/19 04:47:52;;;;;;;0.50;0.50;;;8.10;84.70;;;;;;4992015;28;20476;-73
2022/03/19 04:50:18;;;;;;;0.90;0.90;;;8.10;84.90;;;;;;4990478;28;20383;-73
2022/03/19 04:52:45;;;;;;;0.40;0.30;;;8.00;86.00;;;;;;4992280;28;20389;-73
2022/03/19 04:55:11;;;;;;;1.02;1.02;;;7.90;86.00;;;;;;4990729;28;20387;-73
2022/03/19 04:57:38;;;;;;;0.40;0.40;;;7.90;85.70;;;;;;4989837;28;21041;-73
2022/03/19 05:00:07;;;;;;;0.88;0.88;;;8.00;85.60;;;;;;4991713;28;20410;-73
2022/03/19 05:02:33;;;;;;;0.50;0.50;;;8.00;85.70;;;;;;4991070;28;20403;-73
2022/03/19 05:05:00;;;;;;;0.40;0.40;;;7.90;85.70;;;;;;4991809;28;20875;-73
2022/03/19 05:07:26;;;;;;;0.40;0.40;;;7.90;86.50;;;;;;4991482;28;20496;-73
2022/03/19 05:12:46;;;;;;;1.00;1.00;;;7.90;86.20;;;;;;5010381;28;20518;-73
2022/03/19 05:15:14;;;;;;;1.70;1.60;;;7.80;87.50;;;;;;5011118;28;20523;-73
2022/03/19 05:17:41;;;;;;;1.00;1.00;;;7.90;87.00;;;;;;5010506;28;20427;-73
2022/03/19 05:20:08;;;;;;;0.80;0.50;;;7.80;87.30;;;;;;5011562;28;20396;-73
2022/03/19 05:22:34;;;;;;;0.50;0.50;;;7.70;87.70;;;;;;5010938;28;20385;-73
2022/03/19 05:25:00;;;;;;;0.68;0.68;;;7.70;88.00;;;;;;5010520;28;20396;-73
2022/03/19 05:27:27;;;;;;;0.80;0.80;;;7.70;88.10;;;;;;5010860;28;20424;-73
2022/03/19 05:29:53;;;;;;;0.93;0.93;;;7.70;88.70;;;;;;5009135;28;20385;-73
2022/03/19 05:32:19;;;;;;;0.40;0.30;;;7.60;88.70;;;;;;5009778;28;20385;-73
2022/03/19 05:34:46;;;;;;;0.82;0.82;;;7.50;89.10;;;;;;5010925;28;20389;-73
2022/03/19 05:37:13;;;;;;;0.40;0.40;;;7.50;89.90;;;;;;5010583;28;20397;-74
2022/03/19 05:39:40;;;;;;;0.60;0.60;;;7.50;89.80;;;;;;5011058;28;20389;-73
2022/03/19 05:42:09;;;;;;;0.50;0.50;;;7.50;89.60;;;;;;5010453;28;20385;-73
2022/03/19 05:44:35;;;;;;;0.40;0.20;;;7.60;89.60;;;;;;5010860;28;20392;-73
2022/03/19 05:47:01;;;;;;;1.50;1.37;;;7.70;89.00;;;;;;5009871;28;20812;-74
2022/03/19 05:49:28;;;;;;;0.70;0.50;;;7.70;88.30;;;;;;5011302;28;20384;-73
2022/03/19 05:51:55;;;;;;;0.75;0.75;;;7.70;88.50;;;;;;5010860;28;20781;-73
2022/03/19 05:54:22;;;;;;;0.80;0.60;;;7.80;88.60;;;;;;5010126;28;20709;-73
2022/03/19 05:56:47;;;;;;;1.30;1.20;;;7.80;88.60;;;;;;5010676;28;20451;-73
2022/03/19 05:59:14;;;;;;;0.45;0.38;;;7.80;88.60;;;;;;5008816;28;20401;-73
2022/03/19 06:01:42;;;;;;;1.13;1.13;;;7.80;89.00;;;;;;5012879;28;20503;-73
2022/03/19 06:04:08;;;;;;;0.50;0.50;;;7.70;89.50;;;;;;5014317;28;20482;-73
2022/03/19 06:06:34;;;;;;;0.60;0.50;;;7.80;89.10;;;;;;5015022;28;20782;-73
2022/03/19 06:09:00;;;;;;;1.40;1.15;;;7.90;89.30;;;;;;5010859;28;20959;-73
2022/03/19 06:11:26;;;;;;;0.80;0.60;;;7.80;89.10;;;;;;4994122;28;20387;-73
2022/03/19 06:13:52;;;;;;;1.10;1.10;;;7.80;89.30;;;;;;4995055;28;20382;-72
2022/03/19 06:16:18;;;;;;;0.40;0.37;;;7.90;88.90;;;;;;4993918;28;20875;-73
2022/03/19 06:18:46;;;;;;;3.05;1.65;;;7.90;88.70;;;;;;5002110;28;20548;-72
2022/03/19 06:21:12;;;;;;;1.80;1.60;;;8.00;88.60;;;;;;5008694;28;20406;-72
2022/03/19 06:23:38;;;;;;;0.50;0.50;;;7.90;88.20;;;;;;5004729;28;20452;-72
2022/03/19 06:26:04;;;;;;;0.60;0.60;;;8.00;88.40;;;;;;5007684;28;20468;-73
2022/03/19 06:28:30;;;;;;;0.40;0.20;;;8.00;88.70;;;;;;5004199;28;20420;-73
2022/03/19 06:30:55;;;;;;;0.63;0.63;;;8.00;88.70;;;;;;5004153;28;20397;-73
2022/03/19 06:33:21;;;;;;;1.50;1.40;;;8.00;88.60;;;;;;4994038;28;20379;-73
2022/03/19 06:38:31;;;;;;;0.90;0.60;;;8.00;88.70;;;;;;5001854;28;20414;-72
2022/03/19 06:40:59;;;;;;;0.50;0.50;;;8.10;88.60;;;;;;5004661;28;20394;-72
2022/03/19 06:43:25;;;;;;;0.68;0.68;;;8.10;88.80;;;;;;4999904;28;20401;-72
2022/03/19 06:45:51;;;;;;;1.20;0.70;;;8.10;88.10;;;;;;5008065;28;21014;-73
2022/03/19 06:48:17;;;;;;;1.50;1.43;;;8.20;89.10;;;;;;4993599;28;20422;-72
2022/03/19 06:50:43;;;;;;;0.40;0.40;;;8.40;88.50;;;;;;4993210;28;20391;-72
2022/03/19 06:53:08;;;;;;;1.80;1.17;;;8.40;88.00;;;;;;5007065;28;20391;-72
2022/03/19 06:55:34;;;;;;;1.00;1.00;;;8.50;86.70;;;;;;5009970;28;20381;-72
2022/03/19 06:58:00;;;;;;;0.95;0.95;;;8.40;87.10;;;;;;5007101;28;20533;-72
2022/03/19 07:00:26;;;;;;;0.43;0.38;;;8.40;86.90;;;;;;5002250;28;20474;-73
2022/03/19 07:02:54;;;;;;;0.40;0.27;;;8.40;87.50;;;;;;5005545;28;20386;-73
2022/03/19 07:05:24;;;;;;;2.00;1.60;;;8.40;87.60;;;;;;5007489;28;20396;-73
2022/03/19 07:07:50;;;;;;;0.57;0.57;;;8.50;86.70;;;;;;5006370;28;20432;-74
2022/03/19 07:10:18;;;;;;;1.90;1.80;;;8.50;87.10;;;;;;5003377;28;20489;-74
2022/03/19 07:12:49;;;;;;;0.55;0.52;;;8.50;87.00;;;;;;5004381;28;20389;-74
2022/03/19 07:15:17;;;;;;;1.20;1.10;;;8.50;86.70;;;;;;5001694;28;20453;-74
2022/03/19 07:17:43;;;;;;;0.60;0.60;;;8.70;86.20;;;;;;5006362;28;20736;-73
2022/03/19 07:20:11;;;;;;;0.40;0.40;;;8.70;85.90;;;;;;5009208;28;20385;-74
2022/03/19 07:22:53;;;;;;;1.25;1.17;;;8.80;85.60;;;;;;4995643;28;20875;-73
2022/03/19 07:25:20;;;;;;;1.60;1.33;;;8.80;85.40;;;;;;4993039;28;20386;-73
2022/03/19 07:27:47;;;;;;;0.40;0.30;;;8.80;85.30;;;;;;4993309;28;20487;-74
2022/03/19 07:30:13;;;;;;;1.60;1.50;;;8.80;85.20;;;;;;4993183;28;20520;-74
2022/03/19 07:32:39;;;;;;;1.10;1.10;;;8.90;85.50;;;;;;5002696;28;20400;-74
2022/03/19 07:35:06;;;;;;;0.50;0.50;;;9.00;84.90;;;;;;4994859;28;20419;-74
2022/03/19 07:37:34;;;;;;;1.10;1.00;;;9.10;84.60;;;;;;4992985;28;20771;-73
2022/03/19 07:40:01;;;;;;;0.80;0.80;;;9.10;83.60;;;;;;4993318;28;20383;-74
2022/03/19 07:42:26;;;;;;;1.80;1.70;;;9.10;83.70;;;;;;4992313;28;20954;-74
2022/03/19 07:44:53;;;;;;;0.40;0.30;;;9.10;82.60;;;;;;5000434;28;20466;-73
2022/03/19 07:47:19;;;;;;;0.40;0.32;;;9.20;83.80;;;;;;4996961;28;20445;-74
2022/03/19 07:49:45;;;;;;;0.40;0.40;;;9.30;84.30;;;;;;4993040;28;20391;-74
2022/03/19 07:52:11;;;;;;;1.70;1.60;;;9.40;83.70;;;;;;4991961;28;20391;-74
2022/03/19 07:54:38;;;;;;;0.70;0.70;;;9.30;83.00;;;;;;4991197;28;20957;-72
2022/03/19 07:57:04;;;;;;;0.75;0.60;;;9.40;82.70;;;;;;5000676;28;20508;-73
2022/03/19 07:59:30;;;;;;;1.13;1.02;;;9.40;82.80;;;;;;5017330;28;20488;-73
2022/03/19 08:01:57;;;;;;;0.60;0.60;;;9.50;81.10;;;;;;5002125;28;20530;-74
2022/03/19 08:04:23;;;;;;;0.45;0.40;;;9.60;80.40;;;;;;4992940;28;20390;-73
2022/03/19 08:06:53;;;;;;;1.13;1.05;;;9.70;79.80;;;;;;5005384;28;20393;-74
2022/03/19 08:09:19;;;;;;;0.70;0.70;;;9.90;79.50;;;;;;5010034;28;20422;-74
2022/03/19 08:11:46;;;;;;;1.58;1.45;;;9.80;79.10;;;;;;5003017;28;20750;-73
2022/03/19 08:14:14;;;;;;;0.80;0.80;;;9.90;78.20;;;;;;5009541;28;20385;-73
2022/03/19 08:16:41;;;;;;;1.50;1.40;;;10.00;76.10;;;;;;5010110;28;20389;-75
2022/03/19 08:19:07;;;;;;;1.58;0.85;;;9.90;77.30;;;;;;5015470;28;20966;-74
2022/03/19 08:21:33;;;;;;;1.70;1.30;;;10.00;76.00;;;;;;5013977;28;20387;-75
2022/03/19 08:23:59;;;;;;;0.70;0.70;;;10.10;75.70;;;;;;5006719;28;20385;-74
2022/03/19 08:26:25;;;;;;;1.30;1.00;;;10.20;75.60;;;;;;5001935;28;20394;-74
2022/03/19 08:28:50;;;;;;;0.90;0.90;;;10.20;74.30;;;;;;4999071;28;20453;-73
2022/03/19 08:31:16;;;;;;;1.20;1.10;;;10.30;75.00;;;;;;5003682;28;20873;-73
2022/03/19 08:33:42;;;;;;;0.93;0.93;;;10.50;74.10;;;;;;5003826;28;20405;-76
2022/03/19 08:36:07;;;;;;;0.40;0.20;;;10.40;73.00;;;;;;5011121;28;20443;-75
2022/03/19 08:41:18;;;;;;;1.40;1.30;;;10.60;72.60;;;;;;5010090;28;20416;-76
2022/03/19 08:43:44;;;;;;;1.52;1.42;;;10.80;70.90;;;;;;5011946;28;20881;-76
2022/03/19 08:46:10;;;;;;;0.60;0.50;;;10.70;70.30;;;;;;5011090;28;20450;-76
2022/03/19 08:48:36;;;;;;;0.40;0.20;;;10.90;69.20;;;;;;5011550;28;20472;-76
2022/03/19 08:53:47;;;;;;;0.40;0.40;;;10.90;67.80;;;;;;5010308;28;20411;-76
2022/03/19 08:56:13;;;;;;;0.50;0.50;;;11.00;67.20;;;;;;5009034;28;20461;-75
2022/03/19 08:58:38;;;;;;;0.40;0.40;;;11.10;67.20;;;;;;5011215;28;20931;-76
2022/03/19 09:01:04;;;;;;;0.40;0.30;;;11.20;67.30;;;;;;5009276;28;20450;-75
2022/03/19 09:03:30;;;;;;;0.70;0.70;;;11.20;65.20;;;;;;5011274;28;20381;-74
2022/03/19 09:05:56;;;;;;;0.80;0.70;;;11.40;64.80;;;;;;5011284;28;20388;-74
2022/03/19 09:08:22;;;;;;;1.17;1.08;;;11.50;63.90;;;;;;5009879;28;21849;-74
2022/03/19 09:10:48;;;;;;;1.00;1.00;;;11.60;64.00;;;;;;5011059;28;20401;-73
2022/03/19 09:13:14;;;;;;;4.40;0.90;;;11.50;63.90;;;;;;5010115;28;20396;-73
2022/03/19 09:15:40;;;;;;;1.48;1.30;;;11.60;62.20;;;;;;5011036;28;20389;-73
2022/03/19 09:18:06;;;;;;;1.33;1.23;;;11.60;61.80;;;;;;5010616;28;20389;-74
2022/03/19 09:20:32;;;;;;;1.30;1.30;;;11.70;61.80;;;;;;5010431;28;20814;-73
2022/03/19 09:22:58;;;;;;;1.00;1.00;;;11.80;61.60;;;;;;5004948;28;20869;-71
2022/03/19 09:25:24;;;;;;;1.40;1.30;;;11.80;60.30;;;;;;4991058;28;20740;-73
2022/03/19 09:27:49;;;;;;;0.40;0.20;;;11.80;60.50;;;;;;5006560;28;20408;-75
2022/03/19 09:30:15;;;;;;;2.40;1.10;;;11.90;59.50;;;;;;5007131;28;20455;-74
2022/03/19 09:32:41;;;;;;;0.90;0.80;;;12.00;59.90;;;;;;5000984;28;20393;-74
2022/03/19 09:35:08;;;;;;;0.70;0.70;;;12.10;59.50;;;;;;4999685;28;20792;-74
2022/03/19 09:37:34;;;;;;;0.98;0.98;;;12.20;60.00;;;;;;5002576;28;20690;-73
2022/03/19 09:40:00;;;;;;;0.80;0.80;;;12.30;59.10;;;;;;4998296;28;20752;-74
2022/03/19 09:42:27;;;;;;;0.70;0.60;;;12.30;58.40;;;;;;4999089;28;20389;-74
2022/03/19 09:44:53;;;;;;;1.48;1.38;;;12.50;58.00;;;;;;5006061;28;20385;-74
2022/03/19 09:47:19;;;;;;;0.77;0.70;;;12.70;58.60;;;;;;5000436;28;20417;-74
2022/03/19 09:49:45;;;;;;;0.40;0.20;;;12.50;58.20;;;;;;5001246;28;20400;-76
2022/03/19 09:52:12;;;;;;;2.10;1.93;;;12.60;58.20;;;;;;5003753;28;20385;-74
2022/03/19 09:54:39;;;;;;;0.90;0.90;;;12.60;59.00;;;;;;4997340;28;20386;-75
2022/03/19 09:57:05;;;;;;;0.43;0.38;;;12.80;58.60;;;;;;5008086;28;20396;-74
2022/03/19 09:59:31;;;;;;;0.40;0.20;;;12.90;58.80;;;;;;5000754;28;20838;-74
2022/03/19 10:01:57;;;;;;;0.40;0.22;;;12.90;57.20;;;;;;5001101;28;20396;-75
2022/03/19 10:04:23;;;;;;;0.40;0.30;;;13.00;58.10;;;;;;5000097;28;20468;-75
2022/03/19 10:09:41;;;;;;;1.00;1.00;;;13.00;55.50;;;;;;4994279;28;20413;-75
2022/03/19 10:12:20;;;;;;;0.40;0.20;;;13.00;56.30;;;;;;5004133;28;20478;-75
2022/03/19 10:14:53;;;;;;;0.40;0.30;;;13.20;56.90;;;;;;4999211;28;20397;-75
2022/03/19 10:17:48;;;;;;;0.40;0.30;;;13.30;56.00;;;;;;5002544;28;20499;-75
2022/03/19 10:20:14;;;;;;;0.80;0.80;;;13.40;56.40;;;;;;4989510;28;20419;-75
2022/03/19 10:22:45;;;;;;;2.20;1.70;;;13.50;55.70;;;;;;4999930;28;20389;-75
2022/03/19 10:25:13;;;;;;;0.60;0.60;;;13.50;55.10;;;;;;4998749;28;20393;-75
2022/03/19 10:27:42;;;;;;;0.80;0.80;;;13.60;56.90;;;;;;4997210;28;20989;-74
2022/03/19 10:30:16;;;;;;;0.70;0.50;;;13.70;55.20;;;;;;5003443;28;20480;-75
2022/03/19 10:32:44;;;;;;;1.00;0.80;;;13.70;55.10;;;;;;5005309;28;20768;-75
2022/03/19 10:35:34;;;;;;;1.40;1.30;;;13.70;54.50;;;;;;5002911;28;20487;-75
2022/03/19 10:38:15;;;;;;;0.40;0.20;;;14.00;55.30;;;;;;5008824;28;20579;-74
2022/03/19 10:40:43;;;;;;;1.20;1.10;;;14.00;55.50;;;;;;5002958;28;20398;-74
2022/03/19 10:43:11;;;;;;;1.10;1.10;;;14.10;54.30;;;;;;5008397;28;20393;-74
2022/03/19 10:45:44;;;;;;;0.43;0.32;;;14.20;54.10;;;;;;5007036;28;20400;-74
2022/03/19 10:48:12;;;;;;;1.00;0.90;;;14.10;52.90;;;;;;5008762;28;20408;-74
2022/03/19 10:50:41;;;;;;;0.40;0.30;;;14.40;54.20;;;;;;5012032;28;20424;-73
2022/03/19 10:53:07;;;;;;;1.80;0.80;;;14.20;53.90;;;;;;5012965;28;20605;-73
2022/03/19 10:55:33;;;;;;;0.40;0.30;;;14.30;53.80;;;;;;5011309;28;20774;-74
2022/03/19 10:57:59;;;;;;;1.20;1.10;;;14.30;53.50;;;;;;5009090;28;20390;-73
2022/03/19 11:00:25;;;;;;;0.80;0.80;;;14.50;53.40;;;;;;4994098;28;20897;-73
2022/03/19 11:02:56;;;;;;;1.10;1.10;;;14.60;53.40;;;;;;4993757;28;20430;-73
2022/03/19 11:05:24;;;;;;;1.50;1.40;;;14.70;53.60;;;;;;4992482;28;20406;-73
2022/03/19 11:07:52;;;;;;;1.00;1.00;;;14.80;52.80;;;;;;4993789;28;20790;-74
2022/03/19 11:10:20;;;;;;;0.40;0.30;;;14.90;53.40;;;;;;5006076;28;20423;-74
2022/03/19 11:12:52;;;;;;;0.47;0.47;;;14.90;51.90;;;;;;5013175;28;20463;-74
2022/03/19 11:15:22;;;;;;;1.10;1.10;;;15.20;52.70;;;;;;5012654;28;20388;-74
2022/03/19 11:17:53;;;;;;;2.00;1.90;;;15.40;52.00;;;;;;5013170;28;20461;-74
2022/03/19 11:20:19;;;;;;;0.80;0.80;;;15.50;52.20;;;;;;5012023;28;20419;-74
2022/03/19 11:22:50;;;;;;;0.70;0.50;;;15.80;51.70;;;;;;5013362;28;20472;-74
2022/03/19 11:25:28;;;;;;;1.97;1.77;;;15.60;52.30;;;;;;5012372;28;20476;-73
2022/03/19 11:28:08;;;;;;;0.60;0.45;;;16.00;51.70;;;;;;5012998;28;20448;-73
2022/03/19 11:30:38;;;;;;;0.40;0.40;;;15.90;50.00;;;;;;5013085;28;20388;-73
2022/03/19 11:33:21;;;;;;;0.80;0.70;;;16.20;50.70;;;;;;5012889;28;20899;-73
2022/03/19 11:36:01;;;;;;;2.80;1.60;;;16.30;50.10;;;;;;5012963;28;20389;-73
2022/03/19 11:38:29;;;;;;;0.50;0.40;;;16.80;50.20;;;;;;5012315;28;20487;-73
2022/03/19 11:40:56;;;;;;;1.40;1.30;;;17.60;47.80;;;;;;5012711;28;20488;-74
2022/03/19 11:43:26;;;;;;;1.00;0.80;;;17.80;48.20;;;;;;5012282;28;20385;-74
2022/03/19 11:45:53;;;;;;;0.40;0.30;;;18.10;46.60;;;;;;5011714;28;20397;-74
2022/03/19 11:48:48;;;;;;;0.40;0.30;;;17.80;44.70;;;;;;5011980;28;20456;-74
2022/03/19 11:51:49;;;;;;;0.40;0.20;;;18.80;46.30;;;;;;5012716;28;20381;-74
2022/03/19 11:54:17;;;;;;;0.50;0.50;;;18.00;44.40;;;;;;5002621;28;20850;-73
2022/03/19 11:56:42;;;;;;;0.40;0.30;;;18.60;44.60;;;;;;5012227;28;20381;-73
2022/03/19 11:59:28;;;;;;;0.50;0.40;;;19.10;44.00;;;;;;5012663;28;20416;-74
2022/03/19 12:01:59;;;;;;;0.40;0.30;;;18.80;45.60;;;;;;5001124;28;20436;-74
2022/03/19 12:04:40;;;;;;;0.50;0.40;;;19.20;42.80;;;;;;5011814;28;20845;-74
2022/03/19 12:07:05;;;;;;;0.45;0.40;;;19.40;40.90;;;;;;5012668;28;20385;-73
2022/03/19 12:09:41;;;;;;;1.00;0.80;;;19.40;41.00;;;;;;5004905;28;20414;-74
2022/03/19 12:12:16;;;;;;;0.50;0.40;;;19.80;41.60;;;;;;4992700;28;20478;-74
2022/03/19 12:14:45;;;;;;;0.40;0.20;;;19.30;40.50;;;;;;4992175;28;20497;-74
2022/03/19 12:17:23;;;;;;;0.40;0.30;;;18.50;40.00;;;;;;4992597;28;20427;-74
2022/03/19 12:20:02;;;;;;;0.70;0.70;;;20.10;41.30;;;;;;4974862;28;20402;-74
2022/03/19 12:22:41;;;;;;;0.70;0.50;;;19.80;40.20;;;;;;4992868;28;20386;-74
2022/03/19 12:25:13;;;;;;;0.40;0.30;;;20.70;40.20;;;;;;4992548;28;20387;-74
2022/03/19 12:27:49;;;;;;;0.40;0.30;;;20.80;39.60;;;;;;4991604;28;20418;-74
2022/03/19 12:30:15;;;;;;;0.80;0.60;;;21.80;40.20;;;;;;4992471;28;20421;-73
2022/03/19 12:32:54;;;;;;;0.50;0.50;;;22.50;37.30;;;;;;4991565;28;20475;-73
2022/03/19 12:35:36;;;;;;;0.40;0.30;;;20.60;38.10;;;;;;4992200;28;20383;-74
2022/03/19 12:38:02;;;;;;;0.60;0.60;;;21.20;38.90;;;;;;4991868;28;20422;-73
2022/03/19 12:43:14;;;;;;;1.23;1.13;;;20.70;37.60;;;;;;4991762;28;20441;-73
2022/03/19 12:45:43;;;;;;;0.95;0.95;;;19.90;38.40;;;;;;4989677;28;20405;-74
2022/03/19 12:48:16;;;;;;;0.50;0.50;;;20.60;40.00;;;;;;4998202;28;21756;-74
2022/03/19 12:50:55;;;;;;;0.40;0.30;;;20.50;37.90;;;;;;5002008;28;20403;-75
2022/03/19 12:53:33;;;;;;;0.98;0.88;;;20.80;38.50;;;;;;4996748;28;20743;-74
2022/03/19 12:56:19;;;;;;;0.50;0.40;;;20.10;38.60;;;;;;5001934;28;20386;-75
2022/03/19 12:58:50;;;;;;;0.80;0.50;;;20.30;36.80;;;;;;4998110;28;20966;-75
2022/03/19 13:01:24;;;;;;;0.70;0.60;;;19.80;40.00;;;;;;5002301;28;20397;-75
2022/03/19 13:04:04;;;;;;;0.40;0.30;;;20.30;38.20;;;;;;4996179;28;20469;-75
2022/03/19 13:06:36;;;;;;;0.40;0.40;;;20.00;37.80;;;;;;4999111;28;20397;-74
2022/03/19 13:09:03;;;;;;;0.90;0.70;;;20.10;38.80;;;;;;4999166;28;20430;-74
2022/03/19 13:11:40;;;;;;;0.65;0.60;;;20.40;37.80;;;;;;5000811;28;20789;-75
2022/03/19 13:14:06;;;;;;;0.80;0.80;;;19.60;38.80;;;;;;5004779;28;20388;-75
2022/03/19 13:16:36;;;;;;;1.92;1.38;;;20.40;38.60;;;;;;5010355;28;20393;-74